« Back
NWS Peachtree City, Ga » Text Product » ATL Terminal Aerodrome Forecast


Printer-friendly Version
Current Version              Previous Versions:   1  2  3  4  5  6  7  8  9  

Terminal Aerodrome Forecast

455
FTUS42 KFFC 260530
TAFATL
TAF
KATL 260530Z 2606/2712 14004KT P6SM SCT060
     FM261500 09006KT P6SM SCT045 PROB30 2619/2623 5SM TSRA BR
      BKN035CB
     FM270100 10004KT P6SM SCT250=



USA.gov is the U.S. government's official web portal to all federal, state and local government web resources and services.